createdAt,value
2019-05-09T00:00:33.521Z,63.76
2019-05-09T00:01:33.542Z,63.96
2019-05-09T00:02:33.663Z,64.53
2019-05-09T00:03:33.526Z,65.01
2019-05-09T00:04:33.518Z,65.01
2019-05-09T00:05:33.529Z,64.72
2019-05-09T00:06:33.965Z,64.82
2019-05-09T00:07:33.721Z,65.20
2019-05-09T00:08:33.519Z,64.82
2019-05-09T00:09:33.546Z,65.39
2019-05-09T00:10:39.503Z,65.20
2019-05-09T00:11:33.581Z,65.20
2019-05-09T00:12:33.585Z,65.88
2019-05-09T00:13:34.086Z,65.97
2019-05-09T00:14:34.230Z,65.68
2019-05-09T00:15:33.247Z,65.78
2019-05-09T00:16:33.522Z,65.78
2019-05-09T00:17:33.739Z,65.94
2019-05-09T00:18:33.668Z,66.03
2019-05-09T00:19:33.404Z,65.75
2019-05-09T00:20:33.192Z,65.97
2019-05-09T00:21:33.284Z,66.22
2019-05-09T00:22:33.277Z,66.55
2019-05-09T00:23:33.231Z,66.26
2019-05-09T00:24:33.191Z,66.32
2019-05-09T00:25:33.985Z,66.61
2019-05-09T00:26:33.937Z,66.03
2019-05-09T00:27:33.224Z,66.32
2019-05-09T00:28:35.754Z,66.45
2019-05-09T00:29:33.461Z,66.61
2019-05-09T00:30:33.219Z,66.32
2019-05-09T00:31:33.829Z,66.32
2019-05-09T00:32:34.113Z,66.71
2019-05-09T00:33:34.287Z,66.71
2019-05-09T00:34:33.814Z,66.61
2019-05-09T00:35:33.789Z,66.71
2019-05-09T00:36:33.481Z,66.89
2019-05-09T00:37:33.084Z,67.09
2019-05-09T00:38:33.333Z,66.99
2019-05-09T00:39:34.076Z,66.71
2019-05-09T00:40:34.174Z,67.09
2019-05-09T00:41:33.310Z,67.28
2019-05-09T00:42:33.403Z,66.80
2019-05-09T00:43:34.240Z,66.89
2019-05-09T00:44:33.874Z,66.42
2019-05-09T00:45:33.416Z,66.99
2019-05-09T00:46:34.067Z,67.28
2019-05-09T00:47:33.034Z,67.28
2019-05-09T00:48:33.715Z,66.80
2019-05-09T00:49:34.162Z,67.38
2019-05-09T00:50:34.143Z,67.28
2019-05-09T00:51:33.878Z,67.47
2019-05-09T00:52:33.911Z,67.18
2019-05-09T00:53:33.967Z,68.05
2019-05-09T00:54:33.515Z,67.47
2019-05-09T00:55:33.373Z,67.28
2019-05-09T00:56:33.239Z,67.95
2019-05-09T00:57:33.499Z,67.85
2019-05-09T00:58:33.555Z,67.76
2019-05-09T00:59:33.349Z,67.66
2019-05-09T01:00:33.391Z,67.66
2019-05-09T01:01:34.187Z,67.57
2019-05-09T01:02:34.048Z,67.47
2019-05-09T01:03:34.003Z,67.95
2019-05-09T01:04:33.440Z,67.66
2019-05-09T01:05:34.137Z,67.85
2019-05-09T01:06:34.035Z,67.57
2019-05-09T01:07:33.644Z,67.66
2019-05-09T01:08:33.670Z,67.76
2019-05-09T01:09:33.499Z,68.05
2019-05-09T01:10:34.272Z,67.85
2019-05-09T01:11:33.365Z,67.57
2019-05-09T01:12:34.095Z,67.76
2019-05-09T01:13:34.175Z,67.95
2019-05-09T01:14:33.991Z,67.66
2019-05-09T01:15:33.560Z,67.85
2019-05-09T01:16:33.617Z,67.18
2019-05-09T01:17:33.619Z,67.76
2019-05-09T01:18:33.217Z,67.66
2019-05-09T01:19:33.829Z,67.76
2019-05-09T01:20:33.375Z,67.85
2019-05-09T01:21:33.497Z,67.18
2019-05-09T01:22:33.317Z,67.63
2019-05-09T01:23:34.423Z,67.44
2019-05-09T01:24:33.764Z,67.34
2019-05-09T01:25:33.627Z,66.89
2019-05-09T01:26:33.518Z,67.18
2019-05-09T01:27:33.939Z,67.09
2019-05-09T01:28:33.935Z,66.48
2019-05-09T01:29:33.914Z,66.67
2019-05-09T01:30:33.683Z,67.38
2019-05-09T01:31:33.438Z,66.71
2019-05-09T01:32:34.300Z,67.18
2019-05-09T01:33:33.357Z,67.28
2019-05-09T01:34:33.290Z,66.96
2019-05-09T01:35:33.978Z,67.38
2019-05-09T01:36:33.867Z,67.72
2019-05-09T01:37:34.182Z,67.63
2019-05-09T01:38:33.944Z,67.95
2019-05-09T01:39:33.707Z,66.96
2019-05-09T01:40:33.302Z,67.25
2019-05-09T01:41:34.113Z,67.66
2019-05-09T01:42:33.807Z,67.66
2019-05-09T01:43:33.882Z,67.76
2019-05-09T01:44:33.619Z,67.85
2019-05-09T01:45:34.209Z,67.76
2019-05-09T01:46:34.039Z,66.99
2019-05-09T01:47:34.176Z,67.05
2019-05-09T01:48:34.158Z,67.47
2019-05-09T01:49:34.247Z,67.63
2019-05-09T01:50:34.064Z,67.76
2019-05-09T01:51:33.792Z,67.63
2019-05-09T01:52:33.785Z,67.82
2019-05-09T01:53:33.557Z,67.72
2019-05-09T01:54:33.395Z,67.57
2019-05-09T01:55:34.017Z,67.91
2019-05-09T01:56:33.963Z,67.72
2019-05-09T01:57:33.796Z,67.82
2019-05-09T01:58:34.167Z,67.44
2019-05-09T01:59:34.137Z,67.18
2019-05-09T02:00:33.451Z,67.63
2019-05-09T02:01:34.414Z,67.18
2019-05-09T02:02:33.911Z,67.76
2019-05-09T02:03:33.833Z,67.54
2019-05-09T02:04:33.627Z,67.44
2019-05-09T02:05:34.052Z,67.38
2019-05-09T02:06:33.518Z,67.66
2019-05-09T02:07:33.547Z,67.38
2019-05-09T02:08:34.545Z,67.09
2019-05-09T02:09:34.179Z,67.05
2019-05-09T02:10:34.709Z,66.89
2019-05-09T02:11:42.280Z,67.18
2019-05-09T02:12:33.918Z,66.89
2019-05-09T02:13:34.026Z,67.28
2019-05-09T02:14:34.364Z,67.66
2019-05-09T02:15:34.187Z,67.47
2019-05-09T02:16:33.832Z,67.54
2019-05-09T02:17:33.600Z,67.38
2019-05-09T02:18:33.593Z,67.57
2019-05-09T02:19:33.615Z,66.96
2019-05-09T02:20:33.644Z,67.54
2019-05-09T02:21:34.545Z,67.28
2019-05-09T02:22:34.570Z,67.15
2019-05-09T02:23:33.990Z,67.28
2019-05-09T02:24:33.829Z,66.89
2019-05-09T02:25:33.661Z,66.89
2019-05-09T02:26:33.716Z,67.25
2019-05-09T02:27:33.668Z,67.09
2019-05-09T02:28:34.252Z,67.15
2019-05-09T02:29:33.851Z,66.96
2019-05-09T02:30:36.088Z,66.86
2019-05-09T02:31:35.375Z,67.18
2019-05-09T02:32:34.671Z,67.47
2019-05-09T02:33:34.740Z,66.58
2019-05-09T02:34:35.595Z,66.67
2019-05-09T02:35:41.546Z,66.80
2019-05-09T02:36:33.766Z,66.86
2019-05-09T02:37:33.773Z,66.89
2019-05-09T02:38:33.774Z,67.05
2019-05-09T02:39:33.825Z,66.19
2019-05-09T02:40:33.779Z,66.51
2019-05-09T02:41:33.793Z,66.38
2019-05-09T02:42:33.786Z,66.42
2019-05-09T02:43:33.817Z,66.51
2019-05-09T02:44:33.815Z,66.32
2019-05-09T02:45:33.816Z,66.42
2019-05-09T02:46:33.838Z,66.61
2019-05-09T02:47:33.827Z,66.58
2019-05-09T02:48:33.862Z,66.51
2019-05-09T02:49:33.855Z,66.48
2019-05-09T02:50:33.857Z,66.42
2019-05-09T02:51:33.876Z,65.65
2019-05-09T02:52:33.920Z,66.03
2019-05-09T02:53:33.932Z,66.22
2019-05-09T02:54:33.928Z,66.42
2019-05-09T02:55:33.891Z,66.19
2019-05-09T02:56:33.920Z,66.38
2019-05-09T02:57:34.012Z,66.03
2019-05-09T02:58:34.033Z,65.65
2019-05-09T02:59:33.960Z,65.75
2019-05-09T03:00:33.994Z,65.91
2019-05-09T03:01:33.961Z,65.52
2019-05-09T03:02:33.988Z,65.62
2019-05-09T03:03:33.967Z,65.94
2019-05-09T03:04:33.995Z,65.71
2019-05-09T03:05:33.973Z,65.52
2019-05-09T03:06:34.010Z,65.62
2019-05-09T03:07:33.990Z,65.91
2019-05-09T03:08:34.008Z,65.81
2019-05-09T03:09:34.008Z,65.62
2019-05-09T03:10:34.029Z,65.62
2019-05-09T03:11:34.047Z,65.81
2019-05-09T03:12:35.715Z,65.91
2019-05-09T03:13:34.066Z,66.19
2019-05-09T03:14:34.054Z,66.19
2019-05-09T03:15:34.056Z,65.42
2019-05-09T03:16:34.108Z,66.00
2019-05-09T03:17:34.079Z,65.52
2019-05-09T03:18:34.115Z,66.09
2019-05-09T03:19:34.101Z,66.38
2019-05-09T03:20:34.093Z,66.58
2019-05-09T03:21:34.124Z,66.48
2019-05-09T03:22:34.136Z,66.58
2019-05-09T03:23:34.277Z,66.19
2019-05-09T03:24:34.155Z,66.67
2019-05-09T03:25:34.129Z,66.48
2019-05-09T03:26:34.177Z,66.96
2019-05-09T03:27:34.159Z,67.05
2019-05-09T03:28:34.162Z,66.77
2019-05-09T03:29:34.181Z,66.77
2019-05-09T03:30:34.186Z,66.29
2019-05-09T03:31:34.187Z,66.86
2019-05-09T03:32:34.237Z,66.86
2019-05-09T03:33:35.743Z,66.48
2019-05-09T03:34:34.204Z,67.15
2019-05-09T03:35:34.307Z,66.86
2019-05-09T03:36:34.222Z,67.54
2019-05-09T03:37:34.273Z,66.93
2019-05-09T03:38:34.278Z,66.83
2019-05-09T03:39:34.245Z,67.25
2019-05-09T03:40:34.325Z,66.86
2019-05-09T03:41:34.253Z,66.77
2019-05-09T03:42:42.585Z,66.48
2019-05-09T03:43:34.312Z,66.74
2019-05-09T03:44:34.327Z,66.96
2019-05-09T03:45:34.281Z,67.15
2019-05-09T03:46:34.287Z,66.86
2019-05-09T03:47:34.344Z,66.67
2019-05-09T03:48:34.322Z,67.15
2019-05-09T03:49:34.399Z,67.15
2019-05-09T03:50:34.371Z,66.96
2019-05-09T03:51:34.327Z,67.05
2019-05-09T03:52:34.334Z,67.25
2019-05-09T03:53:34.427Z,67.54
2019-05-09T03:54:34.355Z,67.54
2019-05-09T03:55:34.398Z,66.86
2019-05-09T03:56:34.380Z,67.44
2019-05-09T03:57:34.375Z,67.44
2019-05-09T03:58:34.402Z,67.02
2019-05-09T03:59:34.424Z,67.69
2019-05-09T04:00:34.450Z,67.41
2019-05-09T04:01:34.416Z,67.72
2019-05-09T04:02:34.526Z,67.72
2019-05-09T04:03:34.441Z,67.69
2019-05-09T04:04:34.459Z,67.63
2019-05-09T04:05:34.444Z,67.91
2019-05-09T04:06:34.503Z,67.50
2019-05-09T04:07:34.458Z,67.44
2019-05-09T04:08:34.462Z,67.72
2019-05-09T04:09:34.493Z,67.91
2019-05-09T04:10:34.511Z,67.82
2019-05-09T04:11:34.488Z,67.72
2019-05-09T04:12:34.548Z,67.44
2019-05-09T04:13:34.513Z,67.54
2019-05-09T04:14:34.531Z,67.82
2019-05-09T04:15:34.565Z,67.44
2019-05-09T04:16:34.557Z,67.72
2019-05-09T04:17:34.567Z,67.82
2019-05-09T04:18:34.551Z,67.63
2019-05-09T04:19:34.595Z,67.82
2019-05-09T04:20:34.562Z,67.82
2019-05-09T04:21:34.560Z,67.44
2019-05-09T04:22:34.643Z,67.44
2019-05-09T04:23:34.683Z,67.63
2019-05-09T04:24:34.610Z,67.54
2019-05-09T04:25:34.629Z,67.54
2019-05-09T04:26:34.623Z,66.96
2019-05-09T04:27:34.650Z,66.86
2019-05-09T04:28:34.669Z,66.96
2019-05-09T04:29:34.638Z,66.67
2019-05-09T04:30:34.651Z,67.15
2019-05-09T04:31:34.675Z,66.32
2019-05-09T04:32:34.725Z,66.51
2019-05-09T04:33:34.687Z,66.22
2019-05-09T04:34:34.671Z,66.13
2019-05-09T04:35:34.688Z,65.55
2019-05-09T04:36:34.717Z,65.65
2019-05-09T04:37:34.689Z,65.55
2019-05-09T04:38:34.724Z,65.20
2019-05-09T04:39:34.718Z,64.69
2019-05-09T04:40:37.822Z,65.01
2019-05-09T04:41:34.748Z,65.11
2019-05-09T04:42:34.998Z,65.01
2019-05-09T04:43:36.853Z,64.92
2019-05-09T04:44:34.784Z,65.01
2019-05-09T04:45:40.219Z,65.20
2019-05-09T04:46:34.781Z,65.11
2019-05-09T04:47:39.376Z,64.43
2019-05-09T04:48:34.791Z,64.25
2019-05-09T04:49:40.974Z,64.63
2019-05-09T04:50:34.806Z,64.05
2019-05-09T04:51:34.809Z,64.34
2019-05-09T04:52:34.837Z,64.63
2019-05-09T04:53:34.855Z,64.37
2019-05-09T04:54:34.896Z,64.25
2019-05-09T04:55:34.859Z,63.76
2019-05-09T04:56:34.867Z,64.25
2019-05-09T04:57:34.871Z,63.99
2019-05-09T04:58:34.891Z,63.70
2019-05-09T04:59:37.240Z,64.09
2019-05-09T05:00:34.901Z,63.79
2019-05-09T05:01:34.965Z,63.86
2019-05-09T05:02:34.935Z,63.70
2019-05-09T05:03:34.935Z,63.89
2019-05-09T05:04:37.283Z,63.51
2019-05-09T05:05:34.991Z,63.60
2019-05-09T05:06:34.972Z,62.93
2019-05-09T05:07:35.027Z,63.51
2019-05-09T05:08:34.974Z,63.42
2019-05-09T05:09:34.997Z,63.12
2019-05-09T05:10:37.239Z,63.42
2019-05-09T05:11:35.051Z,63.03
2019-05-09T05:12:34.993Z,63.12
2019-05-09T05:13:35.004Z,62.93
2019-05-09T05:14:35.024Z,62.55
2019-05-09T05:15:35.050Z,62.45
2019-05-09T05:16:35.104Z,62.48
2019-05-09T05:17:37.624Z,62.48
2019-05-09T05:18:37.282Z,62.39
2019-05-09T05:19:37.670Z,62.48
2019-05-09T05:20:35.059Z,62.19
2019-05-09T05:21:35.117Z,62.01
2019-05-09T05:22:35.108Z,62.01
2019-05-09T05:23:35.135Z,62.10
2019-05-09T05:24:35.142Z,62.19
2019-05-09T05:25:35.154Z,61.62
2019-05-09T05:26:35.127Z,61.52
2019-05-09T05:27:35.154Z,61.81
2019-05-09T05:28:35.331Z,62.10
2019-05-09T05:29:35.252Z,62.01
2019-05-09T05:30:37.256Z,62.19
2019-05-09T05:31:41.753Z,62.10
2019-05-09T05:32:35.193Z,62.01
2019-05-09T05:33:35.215Z,61.81
2019-05-09T05:34:35.228Z,62.07
2019-05-09T05:35:37.417Z,62.36
2019-05-09T05:36:35.221Z,61.91
2019-05-09T05:37:35.212Z,62.07
2019-05-09T05:38:37.559Z,62.10
2019-05-09T05:39:37.446Z,61.91
2019-05-09T05:40:43.645Z,62.29
2019-05-09T05:41:37.683Z,61.62
2019-05-09T05:42:35.264Z,61.33
2019-05-09T05:43:41.482Z,61.72
2019-05-09T05:44:35.312Z,61.81
2019-05-09T05:45:37.388Z,61.33
2019-05-09T05:46:37.802Z,61.14
2019-05-09T05:47:37.810Z,61.14
2019-05-09T05:48:35.645Z,61.62
2019-05-09T05:49:35.380Z,61.52
2019-05-09T05:50:35.336Z,61.91
2019-05-09T05:51:35.360Z,61.81
2019-05-09T05:52:37.397Z,61.52
2019-05-09T05:53:35.381Z,61.52
2019-05-09T05:54:37.669Z,61.72
2019-05-09T05:55:37.797Z,61.52
2019-05-09T05:56:35.405Z,61.52
2019-05-09T05:57:35.438Z,61.14
2019-05-09T05:58:35.453Z,60.66
2019-05-09T05:59:40.458Z,60.75
2019-05-09T06:00:37.635Z,60.75
2019-05-09T06:01:35.458Z,60.75
2019-05-09T06:02:35.472Z,61.08
2019-05-09T06:03:37.621Z,60.31
2019-05-09T06:04:37.918Z,60.50
2019-05-09T06:05:35.491Z,60.69
2019-05-09T06:06:37.358Z,60.21
2019-05-09T06:07:37.653Z,60.21
2019-05-09T06:08:37.893Z,60.11
2019-05-09T06:09:37.715Z,60.31
2019-05-09T06:10:37.684Z,60.11
2019-05-09T06:11:35.548Z,60.02
2019-05-09T06:12:37.883Z,59.73
2019-05-09T06:13:37.820Z,59.92
2019-05-09T06:14:37.622Z,59.73
2019-05-09T06:15:37.732Z,59.25
2019-05-09T06:16:37.715Z,59.54
2019-05-09T06:17:37.761Z,59.44
2019-05-09T06:18:38.290Z,59.54
2019-05-09T06:19:37.894Z,59.25
2019-05-09T06:20:35.651Z,59.34
2019-05-09T06:21:37.493Z,59.54
2019-05-09T06:22:37.972Z,59.73
2019-05-09T06:23:37.417Z,59.64
2019-05-09T06:24:35.656Z,59.73
2019-05-09T06:25:35.673Z,59.83
2019-05-09T06:26:37.326Z,59.73
2019-05-09T06:27:37.573Z,59.73
2019-05-09T06:28:37.632Z,59.83
2019-05-09T06:29:35.699Z,59.92
2019-05-09T06:30:40.900Z,59.44
2019-05-09T06:31:37.616Z,59.44
2019-05-09T06:32:37.827Z,59.34
2019-05-09T06:33:35.800Z,59.76
2019-05-09T06:34:39.629Z,59.19
2019-05-09T06:35:37.954Z,58.99
2019-05-09T06:36:38.990Z,58.61
2019-05-09T06:37:38.125Z,58.70
2019-05-09T06:38:37.723Z,58.42
2019-05-09T06:39:37.771Z,58.51
2019-05-09T06:40:38.176Z,58.61
2019-05-09T06:41:37.814Z,58.42
2019-05-09T06:42:38.089Z,58.22
2019-05-09T06:43:39.205Z,57.75
2019-05-09T06:44:37.438Z,58.13
2019-05-09T06:45:40.870Z,57.07
2019-05-09T06:46:37.827Z,57.17
2019-05-09T06:47:38.016Z,57.55
2019-05-09T06:48:37.794Z,56.98
2019-05-09T06:49:37.685Z,56.68
2019-05-09T06:50:37.854Z,56.78
2019-05-09T06:51:38.548Z,56.68
2019-05-09T06:52:37.544Z,56.59
2019-05-09T06:53:37.838Z,56.78
2019-05-09T06:54:35.952Z,56.98
2019-05-09T06:55:38.337Z,56.91
2019-05-09T06:56:38.021Z,56.62
2019-05-09T06:57:41.915Z,56.91
2019-05-09T06:58:38.110Z,56.43
2019-05-09T06:59:38.019Z,56.62
2019-05-09T07:00:37.940Z,56.33
2019-05-09T07:01:37.569Z,55.85
2019-05-09T07:02:36.049Z,55.46
2019-05-09T07:03:37.516Z,56.04
2019-05-09T07:04:38.085Z,56.33
2019-05-09T07:05:36.046Z,56.04
2019-05-09T07:06:38.063Z,55.56
2019-05-09T07:07:37.400Z,56.23
2019-05-09T07:08:37.933Z,55.76
2019-05-09T07:09:38.324Z,56.04
2019-05-09T07:10:37.743Z,56.23
2019-05-09T07:11:38.108Z,55.56
2019-05-09T07:12:37.974Z,55.76
2019-05-09T07:13:38.081Z,55.66
2019-05-09T07:14:40.949Z,55.76
2019-05-09T07:15:37.634Z,55.30
2019-05-09T07:16:37.660Z,55.49
2019-05-09T07:17:38.545Z,55.01
2019-05-09T07:18:38.142Z,54.72
2019-05-09T07:19:38.257Z,55.11
2019-05-09T07:20:37.855Z,54.53
2019-05-09T07:21:37.589Z,53.98
2019-05-09T07:22:38.927Z,53.69
2019-05-09T07:23:37.297Z,53.31
2019-05-09T07:24:37.794Z,53.21
2019-05-09T07:25:37.768Z,53.02
2019-05-09T07:26:37.338Z,52.63
2019-05-09T07:27:38.834Z,52.83
2019-05-09T07:28:37.652Z,52.44
2019-05-09T07:29:37.590Z,52.63
2019-05-09T07:30:37.566Z,52.63
2019-05-09T07:31:37.931Z,52.56
2019-05-09T07:32:38.221Z,51.96
2019-05-09T07:33:38.358Z,52.44
2019-05-09T07:34:38.236Z,52.73
2019-05-09T07:35:38.244Z,52.15
2019-05-09T07:36:38.388Z,51.76
2019-05-09T07:37:37.973Z,51.67
2019-05-09T07:38:38.473Z,51.70
2019-05-09T07:39:37.985Z,51.70
2019-05-09T07:40:38.506Z,51.41
2019-05-09T07:41:38.434Z,51.41
2019-05-09T07:42:38.875Z,51.41
2019-05-09T07:43:38.498Z,51.41
2019-05-09T07:44:48.050Z,51.50
2019-05-09T07:45:38.415Z,51.12
2019-05-09T07:46:38.415Z,50.83
2019-05-09T07:47:38.545Z,50.73
2019-05-09T07:48:38.054Z,50.93
2019-05-09T07:49:37.744Z,50.93
2019-05-09T07:50:38.859Z,51.02
2019-05-09T07:51:37.377Z,50.73
2019-05-09T07:52:38.708Z,50.54
2019-05-09T07:53:38.097Z,51.12
2019-05-09T07:54:37.743Z,50.54
2019-05-09T07:55:37.863Z,50.63
2019-05-09T07:56:37.854Z,50.45
2019-05-09T07:57:44.844Z,50.35
2019-05-09T07:58:37.721Z,50.25
2019-05-09T07:59:38.754Z,50.25
2019-05-09T08:00:38.540Z,50.76
2019-05-09T08:01:38.462Z,50.27
2019-05-09T08:02:38.677Z,50.18
2019-05-09T08:03:38.507Z,49.99
2019-05-09T08:04:38.559Z,50.25
2019-05-09T08:05:38.507Z,50.37
2019-05-09T08:06:38.020Z,50.47
2019-05-09T08:07:38.136Z,50.18
2019-05-09T08:08:38.399Z,50.09
2019-05-09T08:09:38.818Z,49.70
2019-05-09T08:10:38.557Z,49.41
2019-05-09T08:11:37.635Z,49.51
2019-05-09T08:12:38.939Z,49.89
2019-05-09T08:13:39.192Z,50.09
2019-05-09T08:14:37.742Z,49.89
2019-05-09T08:15:38.391Z,49.70
2019-05-09T08:16:37.949Z,49.70
2019-05-09T08:17:38.104Z,49.51
2019-05-09T08:18:37.580Z,49.79
2019-05-09T08:19:38.069Z,49.89
2019-05-09T08:20:40.445Z,49.41
2019-05-09T08:21:38.297Z,49.32
2019-05-09T08:22:41.111Z,49.51
2019-05-09T08:23:38.002Z,49.32
2019-05-09T08:24:38.058Z,49.41
2019-05-09T08:25:38.205Z,49.41
2019-05-09T08:26:39.311Z,49.02
2019-05-09T08:27:37.937Z,49.22
2019-05-09T08:28:38.988Z,49.41
2019-05-09T08:29:38.752Z,49.32
2019-05-09T08:30:40.141Z,49.53
2019-05-09T08:31:40.018Z,49.15
2019-05-09T08:32:37.693Z,49.15
2019-05-09T08:33:38.088Z,48.86
2019-05-09T08:34:37.827Z,48.95
2019-05-09T08:35:38.340Z,49.05
2019-05-09T08:36:38.489Z,48.97
2019-05-09T08:37:38.992Z,48.59
2019-05-09T08:38:39.028Z,48.49
2019-05-09T08:39:38.305Z,48.49
2019-05-09T08:40:38.142Z,48.49
2019-05-09T08:41:38.505Z,47.53
2019-05-09T08:42:37.803Z,47.53
2019-05-09T08:43:37.698Z,47.72
2019-05-09T08:44:37.913Z,47.34
2019-05-09T08:45:38.332Z,47.72
2019-05-09T08:46:37.704Z,47.92
2019-05-09T08:47:38.075Z,46.95
2019-05-09T08:48:37.828Z,46.95
2019-05-09T08:49:37.511Z,46.95
2019-05-09T08:50:38.891Z,47.05
2019-05-09T08:51:50.695Z,47.72
2019-05-09T08:52:37.724Z,47.82
2019-05-09T08:53:38.073Z,48.11
2019-05-09T08:54:38.001Z,47.45
2019-05-09T08:55:38.292Z,46.30
2019-05-09T08:56:38.737Z,46.49
2019-05-09T08:57:37.616Z,46.49
2019-05-09T08:58:38.186Z,46.30
2019-05-09T08:59:38.322Z,46.11
2019-05-09T09:00:39.082Z,46.40
2019-05-09T09:02:03.837Z,46.20
2019-05-09T09:02:37.764Z,46.59
2019-05-09T09:03:37.822Z,46.49
2019-05-09T09:04:38.367Z,46.49
2019-05-09T09:05:38.104Z,46.49
2019-05-09T09:06:38.008Z,46.20
2019-05-09T09:07:38.056Z,45.92
2019-05-09T09:08:38.098Z,46.03
2019-05-09T09:09:37.995Z,46.11
2019-05-09T09:10:38.469Z,45.75
2019-05-09T09:11:38.540Z,45.94
2019-05-09T09:12:38.433Z,45.65
2019-05-09T09:13:37.938Z,45.55
2019-05-09T09:14:38.458Z,45.26
2019-05-09T09:16:03.018Z,45.45
2019-05-09T09:16:38.049Z,45.28
2019-05-09T09:17:38.505Z,45.09
2019-05-09T09:18:38.795Z,44.90
2019-05-09T09:19:38.576Z,45.00
2019-05-09T09:20:38.099Z,45.00
2019-05-09T09:21:38.815Z,44.51
2019-05-09T09:22:37.797Z,44.22
2019-05-09T09:23:44.185Z,44.12
2019-05-09T09:24:37.663Z,44.12
2019-05-09T09:25:39.146Z,43.93
2019-05-09T09:26:38.192Z,44.32
2019-05-09T09:27:38.191Z,45.26
2019-05-09T09:28:38.101Z,45.09
2019-05-09T09:29:38.112Z,45.00
2019-05-09T09:30:38.641Z,45.36
2019-05-09T09:31:37.898Z,45.00
2019-05-09T09:32:38.784Z,45.18
2019-05-09T09:33:37.867Z,44.32
2019-05-09T09:34:38.022Z,44.22
2019-05-09T09:35:38.393Z,44.42
2019-05-09T09:36:39.049Z,44.32
2019-05-09T09:37:48.551Z,43.84
2019-05-09T09:38:37.732Z,43.93
2019-05-09T09:39:44.375Z,44.03
2019-05-09T09:40:38.571Z,43.93
2019-05-09T09:41:38.837Z,43.57
2019-05-09T09:42:39.612Z,43.57
2019-05-09T09:43:38.489Z,43.28
2019-05-09T09:44:39.324Z,43.28
2019-05-09T09:45:38.103Z,43.37
2019-05-09T09:46:37.834Z,43.57
2019-05-09T09:47:39.936Z,43.57
2019-05-09T09:48:38.914Z,42.72
2019-05-09T09:49:38.341Z,42.72
2019-05-09T09:50:38.463Z,42.33
2019-05-09T09:51:38.323Z,42.43
2019-05-09T09:52:38.505Z,42.14
2019-05-09T09:53:38.668Z,42.33
2019-05-09T09:54:38.656Z,42.24
2019-05-09T09:55:38.562Z,42.52
2019-05-09T09:56:38.778Z,42.24
2019-05-09T09:57:37.993Z,42.24
2019-05-09T09:58:38.117Z,42.14
2019-05-09T09:59:40.809Z,42.04
2019-05-09T10:00:38.266Z,42.33
2019-05-09T10:01:38.548Z,42.24
2019-05-09T10:02:38.067Z,41.94
2019-05-09T10:03:38.055Z,42.14
2019-05-09T10:04:38.070Z,41.94
2019-05-09T10:05:38.181Z,42.52
2019-05-09T10:06:38.956Z,42.72
2019-05-09T10:07:38.508Z,42.50
2019-05-09T10:08:39.697Z,42.21
2019-05-09T10:09:38.112Z,42.60
2019-05-09T10:10:38.139Z,42.79
2019-05-09T10:11:38.181Z,42.48
2019-05-09T10:12:44.284Z,42.60
2019-05-09T10:13:38.219Z,43.54
2019-05-09T10:14:38.232Z,43.45
2019-05-09T10:15:38.458Z,43.35
2019-05-09T10:16:39.011Z,43.35
2019-05-09T10:17:38.760Z,43.35
2019-05-09T10:18:38.322Z,42.87
2019-05-09T10:19:38.458Z,42.58
2019-05-09T10:20:38.580Z,42.97
2019-05-09T10:21:38.325Z,43.54
2019-05-09T10:22:46.709Z,43.26
2019-05-09T10:23:38.339Z,43.35
2019-05-09T10:24:38.320Z,43.64
2019-05-09T10:25:38.456Z,43.74
2019-05-09T10:26:38.998Z,43.35
2019-05-09T10:27:38.791Z,43.43
2019-05-09T10:28:38.344Z,43.81
2019-05-09T10:29:39.005Z,43.52
2019-05-09T10:30:38.516Z,43.81
2019-05-09T10:31:39.209Z,43.91
2019-05-09T10:32:38.529Z,44.01
2019-05-09T10:33:38.430Z,43.91
2019-05-09T10:34:38.415Z,43.91
2019-05-09T10:35:39.140Z,43.81
2019-05-09T10:36:38.542Z,44.27
2019-05-09T10:37:39.445Z,44.46
2019-05-09T10:38:38.838Z,44.95
2019-05-09T10:39:38.473Z,45.24
2019-05-09T10:40:39.888Z,45.34
2019-05-09T10:41:38.510Z,45.62
2019-05-09T10:42:38.549Z,45.72
2019-05-09T10:43:39.120Z,45.99
2019-05-09T10:44:38.857Z,46.20
2019-05-09T10:45:40.804Z,46.37
2019-05-09T10:46:52.029Z,46.76
2019-05-09T10:47:38.565Z,46.86
2019-05-09T10:48:38.705Z,46.37
2019-05-09T10:49:38.596Z,47.14
2019-05-09T10:50:44.259Z,47.92
2019-05-09T10:51:38.587Z,47.82
2019-05-09T10:52:38.599Z,47.63
2019-05-09T10:53:38.623Z,47.63
2019-05-09T10:54:38.632Z,47.92
2019-05-09T10:55:38.795Z,48.01
2019-05-09T10:56:38.703Z,47.72
2019-05-09T10:57:42.495Z,47.05
2019-05-09T10:58:38.694Z,47.45
2019-05-09T10:59:38.690Z,46.30
2019-05-09T11:00:39.621Z,46.49
2019-05-09T11:01:38.724Z,46.13
2019-05-09T11:02:38.716Z,45.55
2019-05-09T11:03:38.734Z,44.97
2019-05-09T11:04:42.127Z,44.29
2019-05-09T11:05:38.746Z,43.81
2019-05-09T11:06:38.796Z,44.12
2019-05-09T11:07:38.804Z,43.84
2019-05-09T11:08:38.837Z,43.45
2019-05-09T11:09:39.100Z,43.45
2019-05-09T11:10:39.867Z,43.16
2019-05-09T11:11:38.941Z,42.77
2019-05-09T11:12:38.864Z,42.00
2019-05-09T11:13:39.139Z,42.29
2019-05-09T11:14:38.876Z,42.12
2019-05-09T11:15:38.887Z,42.02
2019-05-09T11:16:45.914Z,42.31
2019-05-09T11:17:39.074Z,42.21
2019-05-09T11:18:38.939Z,41.83
2019-05-09T11:19:38.955Z,41.54
2019-05-09T11:20:39.006Z,40.67
2019-05-09T11:21:39.372Z,40.86
2019-05-09T11:22:39.024Z,41.05
2019-05-09T11:23:39.380Z,40.77
2019-05-09T11:24:46.118Z,41.56
2019-05-09T11:25:39.051Z,41.56
2019-05-09T11:26:39.903Z,40.98
2019-05-09T11:27:39.042Z,41.56
2019-05-09T11:28:39.449Z,41.66
2019-05-09T11:29:39.071Z,41.75
2019-05-09T11:30:39.076Z,41.44
2019-05-09T11:31:39.085Z,41.54
2019-05-09T11:32:39.111Z,41.44
2019-05-09T11:33:39.150Z,42.12
2019-05-09T11:34:39.117Z,42.68
2019-05-09T11:35:39.121Z,43.54
2019-05-09T11:36:39.253Z,44.29
2019-05-09T11:37:39.185Z,45.84
2019-05-09T11:38:43.641Z,46.51
2019-05-09T11:39:42.206Z,48.35
2019-05-09T11:40:39.205Z,50.09
2019-05-09T11:41:39.203Z,50.38
2019-05-09T11:42:39.254Z,50.57
2019-05-09T11:43:39.350Z,51.80
2019-05-09T11:44:39.228Z,51.89
2019-05-09T11:45:39.342Z,51.51
2019-05-09T11:46:39.282Z,52.37
2019-05-09T11:47:45.896Z,53.05
2019-05-09T11:48:39.315Z,52.76
2019-05-09T11:49:39.354Z,53.34
2019-05-09T11:50:39.307Z,52.67
2019-05-09T11:51:39.315Z,53.05
2019-05-09T11:52:39.350Z,52.76
2019-05-09T11:53:40.179Z,53.41
2019-05-09T11:54:39.359Z,52.93
2019-05-09T11:55:43.083Z,52.93
2019-05-09T11:56:39.369Z,53.25
2019-05-09T11:57:39.369Z,53.25
2019-05-09T11:58:39.442Z,53.25
2019-05-09T11:59:39.399Z,52.67
2019-05-09T12:00:39.423Z,53.15
2019-05-09T12:01:39.894Z,53.05
2019-05-09T12:02:39.491Z,52.28
2019-05-09T12:03:39.475Z,52.76
2019-05-09T12:04:39.486Z,51.89
2019-05-09T12:05:39.480Z,51.80
2019-05-09T12:06:39.492Z,51.89
2019-05-09T12:07:39.559Z,51.70
2019-05-09T12:08:39.544Z,51.05
2019-05-09T12:09:39.602Z,50.09
2019-05-09T12:10:39.558Z,49.99
2019-05-09T12:11:44.187Z,49.99
2019-05-09T12:12:39.573Z,50.18
2019-05-09T12:13:39.573Z,49.90
2019-05-09T12:14:39.590Z,49.41
2019-05-09T12:15:39.696Z,48.76
2019-05-09T12:16:39.616Z,48.28
2019-05-09T12:17:53.101Z,46.73
2019-05-09T12:18:39.661Z,45.76
2019-05-09T12:19:39.651Z,45.00
2019-05-09T12:20:39.737Z,44.42
2019-05-09T12:21:47.425Z,45.00
2019-05-09T12:22:39.677Z,45.31
2019-05-09T12:23:39.721Z,44.92
2019-05-09T12:24:39.708Z,44.82
2019-05-09T12:25:39.780Z,44.03
2019-05-09T12:26:39.746Z,45.40
2019-05-09T12:27:39.731Z,44.92
2019-05-09T12:28:39.794Z,45.11
2019-05-09T12:29:39.765Z,45.11
2019-05-09T12:30:39.770Z,45.40
2019-05-09T12:31:39.805Z,44.94
2019-05-09T12:32:39.794Z,45.33
2019-05-09T12:33:39.827Z,45.23
2019-05-09T12:34:39.833Z,44.36
2019-05-09T12:35:39.831Z,44.65
2019-05-09T12:36:40.127Z,44.36
2019-05-09T12:37:39.870Z,43.59
2019-05-09T12:38:39.880Z,43.59
2019-05-09T12:39:39.893Z,42.62
2019-05-09T12:40:39.889Z,42.24
2019-05-09T12:41:39.909Z,43.49
2019-05-09T12:42:39.967Z,43.01
2019-05-09T12:43:39.981Z,42.52
2019-05-09T12:44:39.964Z,42.12
2019-05-09T12:45:39.963Z,42.79
2019-05-09T12:46:39.971Z,43.57
2019-05-09T12:47:40.022Z,42.70
2019-05-09T12:48:40.035Z,42.89
2019-05-09T12:49:40.055Z,43.57
2019-05-09T12:50:40.061Z,43.54
2019-05-09T12:51:40.015Z,43.26
2019-05-09T12:52:40.044Z,43.54